createdAt,value
2018-11-11T00:00:27.374Z,37.70
2018-11-11T00:02:55.741Z,30.67
2018-11-11T00:05:23.860Z,30.03
2018-11-11T00:07:51.973Z,26.07
2018-11-11T00:10:20.110Z,23.93
2018-11-11T00:12:48.234Z,22.63
2018-11-11T00:15:17.154Z,24.63
2018-11-11T00:17:46.040Z,24.87
2018-11-11T00:20:14.398Z,30.13
2018-11-11T00:22:42.784Z,29.27
2018-11-11T00:25:10.901Z,26.80
2018-11-11T00:27:39.352Z,32.80
2018-11-11T00:30:12.018Z,30.00
2018-11-11T00:32:40.234Z,34.50
2018-11-11T00:35:08.778Z,33.37
2018-11-11T00:37:37.146Z,30.90
2018-11-11T00:40:05.357Z,33.97
2018-11-11T00:42:33.308Z,36.37
2018-11-11T00:45:01.462Z,32.93
2018-11-11T00:47:29.586Z,33.53
2018-11-11T00:49:57.909Z,33.60
2018-11-11T00:52:25.800Z,33.17
2018-11-11T00:54:53.704Z,30.57
2018-11-11T00:57:21.625Z,33.37
2018-11-11T00:59:49.749Z,34.37
2018-11-11T01:02:17.889Z,30.60
2018-11-11T01:04:46.152Z,29.47
2018-11-11T01:07:14.285Z,29.77
2018-11-11T01:09:42.176Z,36.57
2018-11-11T01:12:10.331Z,35.70
2018-11-11T01:14:38.266Z,32.40
2018-11-11T01:17:07.007Z,35.67
2018-11-11T01:19:35.178Z,32.57
2018-11-11T01:22:03.081Z,39.10
2018-11-11T01:24:31.205Z,38.53
2018-11-11T01:26:59.109Z,35.63
2018-11-11T01:29:27.032Z,39.07
2018-11-11T01:31:55.149Z,33.03
2018-11-11T01:34:23.282Z,40.23
2018-11-11T01:36:51.393Z,36.13
2018-11-11T01:39:19.274Z,47.63
2018-11-11T01:41:47.393Z,41.70
2018-11-11T01:44:15.497Z,39.67
2018-11-11T01:46:43.427Z,42.10
2018-11-11T01:49:11.313Z,37.90
2018-11-11T01:51:39.213Z,35.73
2018-11-11T01:54:07.366Z,34.90
2018-11-11T01:56:35.513Z,40.90
2018-11-11T01:59:03.592Z,40.93
2018-11-11T02:01:31.697Z,38.10
2018-11-11T02:03:59.820Z,35.73
2018-11-11T02:06:27.925Z,38.63
2018-11-11T02:08:56.033Z,37.73
2018-11-11T02:11:23.934Z,38.87
2018-11-11T02:13:52.042Z,34.20
2018-11-11T02:16:20.165Z,37.10
2018-11-11T02:18:48.280Z,35.43
2018-11-11T02:21:16.423Z,36.80
2018-11-11T02:23:44.501Z,35.53
2018-11-11T02:26:12.398Z,35.63
2018-11-11T02:28:40.534Z,39.90
2018-11-11T02:31:08.646Z,36.10
2018-11-11T02:33:36.563Z,36.57
2018-11-11T02:36:04.457Z,37.67
2018-11-11T02:38:32.570Z,39.67
2018-11-11T02:41:01.507Z,39.17
2018-11-11T02:43:29.681Z,43.47
2018-11-11T02:45:57.845Z,37.23
2018-11-11T02:51:04.877Z,34.80
2018-11-11T02:53:32.787Z,39.23
2018-11-11T02:56:00.688Z,32.27
2018-11-11T02:58:28.819Z,40.70
2018-11-11T03:00:56.743Z,35.77
2018-11-11T03:03:24.893Z,35.33
2018-11-11T03:05:53.010Z,34.63
2018-11-11T03:08:21.158Z,36.70
2018-11-11T03:10:49.298Z,34.23
2018-11-11T03:13:17.426Z,34.40
2018-11-11T03:15:45.560Z,41.23
2018-11-11T03:18:13.693Z,35.77
2018-11-11T03:20:41.600Z,38.67
2018-11-11T03:23:09.505Z,37.63
2018-11-11T03:25:37.418Z,37.27
2018-11-11T03:28:05.550Z,39.07
2018-11-11T03:30:33.678Z,38.07
2018-11-11T03:33:01.589Z,38.00
2018-11-11T03:35:29.481Z,35.73
2018-11-11T03:37:57.625Z,40.97
2018-11-11T03:40:25.753Z,38.67
2018-11-11T03:42:53.660Z,40.00
2018-11-11T03:45:22.067Z,38.73
2018-11-11T03:47:51.364Z,33.60
2018-11-11T03:50:19.465Z,35.67
2018-11-11T03:52:47.914Z,37.90
2018-11-11T03:55:16.154Z,35.77
2018-11-11T03:57:44.094Z,37.70
2018-11-11T04:00:12.866Z,35.77
2018-11-11T04:02:41.002Z,36.97
2018-11-11T04:05:10.510Z,37.87
2018-11-11T04:07:38.922Z,40.47
2018-11-11T04:10:08.960Z,36.73
2018-11-11T04:12:37.122Z,34.10
2018-11-11T04:15:06.569Z,35.10
2018-11-11T04:17:34.883Z,39.20
2018-11-11T04:20:03.004Z,36.40
2018-11-11T04:22:31.332Z,36.60
2018-11-11T04:24:59.458Z,35.67
2018-11-11T04:27:27.595Z,29.47
2018-11-11T04:29:55.518Z,37.63
2018-11-11T04:32:23.689Z,36.47
2018-11-11T04:34:51.601Z,35.33
2018-11-11T04:37:19.730Z,37.87
2018-11-11T04:39:47.637Z,36.47
2018-11-11T04:42:15.640Z,35.83
2018-11-11T04:44:43.761Z,33.87
2018-11-11T04:47:11.886Z,30.03
2018-11-11T04:49:39.804Z,29.43
2018-11-11T04:52:07.705Z,38.83
2018-11-11T04:54:35.631Z,37.77
2018-11-11T04:57:03.539Z,34.70
2018-11-11T04:59:31.670Z,35.37
2018-11-11T05:01:59.807Z,38.33
2018-11-11T05:04:27.964Z,37.73
2018-11-11T05:06:55.853Z,35.53
2018-11-11T05:09:23.974Z,39.67
2018-11-11T05:11:52.106Z,35.87
2018-11-11T05:14:20.027Z,44.60
2018-11-11T05:16:48.180Z,42.10
2018-11-11T05:19:16.308Z,47.57
2018-11-11T05:21:44.243Z,41.33
2018-11-11T05:24:12.122Z,34.10
2018-11-11T05:26:40.253Z,35.50
2018-11-11T05:29:08.410Z,36.33
2018-11-11T05:31:36.533Z,38.57
2018-11-11T05:34:04.694Z,32.47
2018-11-11T05:36:32.810Z,31.23
2018-11-11T05:39:00.718Z,31.60
2018-11-11T05:41:28.910Z,42.43
2018-11-11T05:43:57.038Z,35.87
2018-11-11T05:46:24.949Z,28.87
2018-11-11T05:48:52.886Z,34.30
2018-11-11T05:51:20.792Z,25.47
2018-11-11T05:53:48.929Z,25.83
2018-11-11T05:56:17.052Z,28.10
2018-11-11T05:58:45.198Z,26.00
2018-11-11T06:01:13.383Z,23.63
2018-11-11T06:03:41.511Z,23.70
2018-11-11T06:06:09.634Z,22.37
2018-11-11T06:08:37.810Z,28.47
2018-11-11T06:11:05.937Z,24.47
2018-11-11T06:13:34.061Z,23.50
2018-11-11T06:16:02.202Z,23.97
2018-11-11T06:18:30.335Z,22.77
2018-11-11T06:20:58.243Z,23.97
2018-11-11T06:23:26.396Z,28.50
2018-11-11T06:25:54.512Z,30.43
2018-11-11T06:28:22.656Z,24.23
2018-11-11T06:30:50.765Z,24.77
2018-11-11T06:33:18.905Z,29.93
2018-11-11T06:35:47.022Z,25.97
2018-11-11T06:38:15.158Z,29.30
2018-11-11T06:40:43.130Z,31.17
2018-11-11T06:43:11.031Z,29.70
2018-11-11T06:45:38.934Z,33.77
2018-11-11T06:48:07.158Z,27.47
2018-11-11T06:50:35.025Z,25.70
2018-11-11T06:53:02.949Z,26.60
2018-11-11T06:55:31.072Z,28.87
2018-11-11T06:57:59.236Z,26.87
2018-11-11T07:00:27.210Z,30.90
2018-11-11T07:04:07.513Z,30.17
2018-11-11T07:06:35.638Z,28.20
2018-11-11T07:09:05.248Z,29.83
2018-11-11T07:11:33.390Z,31.93
2018-11-11T07:14:01.619Z,34.97
2018-11-11T07:16:29.749Z,30.20
2018-11-11T07:18:57.990Z,37.30
2018-11-11T07:21:26.102Z,38.50
2018-11-11T07:23:54.021Z,33.73
2018-11-11T07:26:21.907Z,32.83
2018-11-11T07:28:49.830Z,31.23
2018-11-11T07:31:17.951Z,31.53
2018-11-11T07:33:46.087Z,36.23
2018-11-11T07:36:14.214Z,32.97
2018-11-11T07:38:42.355Z,34.87
2018-11-11T07:41:10.482Z,37.20
2018-11-11T07:43:38.988Z,36.17
2018-11-11T07:46:07.069Z,33.47
2018-11-11T07:48:34.967Z,35.60
2018-11-11T07:51:03.106Z,32.87
2018-11-11T07:53:31.279Z,35.67
2018-11-11T07:55:59.418Z,35.57
2018-11-11T07:58:27.593Z,38.37
2018-11-11T08:00:55.461Z,34.73
2018-11-11T08:03:23.600Z,36.77
2018-11-11T08:05:51.509Z,39.17
2018-11-11T08:08:19.638Z,32.77
2018-11-11T08:10:59.305Z,33.20
2018-11-11T08:13:27.438Z,32.57
2018-11-11T08:15:55.554Z,36.50
2018-11-11T08:18:23.457Z,35.10
2018-11-11T08:20:51.365Z,38.13
2018-11-11T08:23:19.490Z,33.70
2018-11-11T08:25:47.682Z,33.87
2018-11-11T08:28:15.802Z,32.80
2018-11-11T08:30:43.936Z,32.33
2018-11-11T08:33:12.061Z,31.53
2018-11-11T08:35:40.186Z,32.70
2018-11-11T08:38:08.361Z,27.13
2018-11-11T08:40:36.545Z,25.43
2018-11-11T08:43:04.723Z,26.57
2018-11-11T08:45:32.638Z,26.03
2018-11-11T08:48:00.819Z,24.00
2018-11-11T08:50:28.894Z,21.47
2018-11-11T08:52:57.074Z,23.50
2018-11-11T08:55:25.210Z,23.53
2018-11-11T08:57:59.954Z,24.77
2018-11-11T09:00:27.963Z,19.53
2018-11-11T09:02:55.864Z,19.83
2018-11-11T09:05:24.075Z,19.80
2018-11-11T09:07:52.941Z,31.30
2018-11-11T09:10:22.420Z,28.33
2018-11-11T09:12:50.602Z,22.10
2018-11-11T09:15:18.730Z,22.03
2018-11-11T09:17:47.230Z,20.90
2018-11-11T09:20:16.292Z,20.57
2018-11-11T09:22:45.038Z,22.93
2018-11-11T09:25:13.980Z,19.97
2018-11-11T09:27:42.561Z,18.77
2018-11-11T09:30:13.121Z,18.97
2018-11-11T09:32:42.598Z,16.20
2018-11-11T09:35:10.841Z,14.47
2018-11-11T09:37:39.455Z,13.80
2018-11-11T09:40:08.554Z,14.70
2018-11-11T09:42:36.763Z,12.27
2018-11-11T09:45:06.371Z,11.67
2018-11-11T09:47:34.543Z,8.03
2018-11-11T09:50:03.136Z,8.27
2018-11-11T09:52:31.092Z,5.30
2018-11-11T09:54:58.948Z,7.63
2018-11-11T09:57:27.448Z,5.67
2018-11-11T09:59:55.691Z,6.17
2018-11-11T10:02:24.374Z,5.17
2018-11-11T10:04:58.076Z,4.67
2018-11-11T10:08:30.503Z,6.17
2018-11-11T10:11:09.649Z,6.17
2018-11-11T10:13:45.781Z,5.80
2018-11-11T10:18:25.154Z,7.23
2018-11-11T10:21:00.489Z,6.57
2018-11-11T10:24:32.049Z,6.57
2018-11-11T10:27:04.556Z,8.20
2018-11-11T10:29:38.127Z,7.20
2018-11-11T10:32:21.654Z,8.20
2018-11-11T10:34:53.262Z,6.90
2018-11-11T10:37:24.532Z,7.00
2018-11-11T10:39:55.706Z,7.50
2018-11-11T10:42:58.334Z,7.60
2018-11-11T10:45:32.679Z,8.30
2018-11-11T10:48:03.119Z,9.83
2018-11-11T10:53:10.305Z,8.63
2018-11-11T10:55:38.463Z,8.77
2018-11-11T10:58:06.623Z,9.13
2018-11-11T11:00:40.147Z,8.83
2018-11-11T11:03:13.476Z,8.87
2018-11-11T11:05:41.638Z,11.07
2018-11-11T11:08:09.783Z,10.80
2018-11-11T11:10:38.006Z,10.83
2018-11-11T11:13:06.188Z,9.70
2018-11-11T11:15:34.303Z,9.63
2018-11-11T11:18:02.491Z,9.37
2018-11-11T11:20:30.643Z,8.50
2018-11-11T11:22:58.803Z,8.50
2018-11-11T11:25:26.766Z,8.03
2018-11-11T11:27:54.889Z,7.67
2018-11-11T11:30:23.110Z,6.93
2018-11-11T11:32:51.023Z,6.63
2018-11-11T11:35:19.260Z,5.47
2018-11-11T11:37:47.342Z,5.10
2018-11-11T11:40:15.499Z,6.33
2018-11-11T11:42:43.406Z,6.03
2018-11-11T11:45:12.299Z,4.33
2018-11-11T11:47:41.087Z,5.03
2018-11-11T11:50:11.105Z,4.97
2018-11-11T11:52:39.080Z,4.87
2018-11-11T11:55:07.750Z,4.00
2018-11-11T11:57:35.663Z,4.77
2018-11-11T12:00:04.071Z,5.37
2018-11-11T12:02:31.984Z,3.53
2018-11-11T12:05:00.126Z,3.70
2018-11-11T12:07:28.056Z,4.47
2018-11-11T12:09:55.967Z,4.00
2018-11-11T12:12:24.158Z,3.73
2018-11-11T12:14:52.293Z,4.80
2018-11-11T12:17:20.453Z,3.93
2018-11-11T12:19:48.580Z,5.60
2018-11-11T12:22:16.481Z,4.67
2018-11-11T12:24:44.616Z,4.57
2018-11-11T12:27:12.536Z,4.13
2018-11-11T12:29:40.681Z,3.23
2018-11-11T12:32:10.266Z,3.17
2018-11-11T12:34:38.592Z,3.33
2018-11-11T12:37:06.883Z,2.87
2018-11-11T12:39:35.095Z,2.50
2018-11-11T12:42:04.250Z,2.23
2018-11-11T12:44:33.647Z,3.73
2018-11-11T12:47:01.873Z,2.10
2018-11-11T12:49:29.882Z,3.30
2018-11-11T12:51:58.455Z,3.33
2018-11-11T12:54:27.377Z,3.57
2018-11-11T12:56:55.536Z,2.10
2018-11-11T12:59:23.763Z,4.13
2018-11-11T13:01:52.602Z,2.33
2018-11-11T13:04:20.771Z,3.63
2018-11-11T13:06:49.163Z,5.17
2018-11-11T13:09:18.119Z,2.30
2018-11-11T13:11:46.264Z,4.20
2018-11-11T13:14:14.494Z,2.10
2018-11-11T13:16:43.758Z,3.87
2018-11-11T13:19:11.688Z,3.20
2018-11-11T13:21:39.606Z,2.10
2018-11-11T13:24:08.074Z,2.77
2018-11-11T13:26:36.250Z,5.03
2018-11-11T13:29:04.837Z,3.33
2018-11-11T13:31:32.735Z,2.33
2018-11-11T13:34:00.650Z,4.90
2018-11-11T13:36:28.786Z,2.67
2018-11-11T13:38:56.934Z,3.33
2018-11-11T13:41:25.083Z,3.17
2018-11-11T13:43:53.234Z,2.50
2018-11-11T13:46:21.156Z,3.27
2018-11-11T13:48:49.088Z,2.40
2018-11-11T13:51:17.231Z,2.80
2018-11-11T13:53:45.377Z,5.37
2018-11-11T13:56:13.532Z,2.83
2018-11-11T13:58:41.686Z,2.83
2018-11-11T14:01:09.831Z,4.00
2018-11-11T14:03:37.743Z,2.67
2018-11-11T14:06:05.887Z,2.80
2018-11-11T14:08:34.491Z,2.30
2018-11-11T14:11:02.495Z,3.97
2018-11-11T14:13:30.882Z,2.77
2018-11-11T14:15:58.834Z,3.47
2018-11-11T14:18:26.870Z,3.17
2018-11-11T14:20:54.654Z,6.23
2018-11-11T14:23:22.798Z,3.73
2018-11-11T14:25:51.029Z,3.33
2018-11-11T14:28:19.073Z,1.87
2018-11-11T14:30:47.221Z,2.73
2018-11-11T14:33:15.385Z,2.93
2018-11-11T14:35:43.522Z,2.27
2018-11-11T14:38:11.730Z,3.03
2018-11-11T14:40:39.570Z,2.33
2018-11-11T14:43:07.714Z,2.50
2018-11-11T14:45:35.634Z,2.20
2018-11-11T14:48:03.554Z,2.43
2018-11-11T14:50:31.751Z,1.93
2018-11-11T14:52:59.703Z,2.57
2018-11-11T14:55:36.284Z,3.50
2018-11-11T14:58:04.262Z,2.83
2018-11-11T15:00:34.438Z,3.43
2018-11-11T15:03:09.782Z,3.53
2018-11-11T15:05:37.750Z,3.93
2018-11-11T15:08:05.846Z,2.10
2018-11-11T15:10:33.664Z,2.00
2018-11-11T15:13:01.878Z,2.77
2018-11-11T15:15:30.007Z,3.63
2018-11-11T15:17:58.843Z,1.97
2018-11-11T15:20:26.952Z,2.20
2018-11-11T15:22:54.956Z,2.10
2018-11-11T15:25:24.486Z,2.10
2018-11-11T15:27:52.643Z,2.90
2018-11-11T15:30:22.156Z,4.50
2018-11-11T15:32:50.734Z,2.70
2018-11-11T15:35:18.970Z,3.37
2018-11-11T15:37:46.869Z,1.67
2018-11-11T15:40:16.483Z,1.37
2018-11-11T15:42:44.695Z,3.00
2018-11-11T15:45:15.082Z,3.23
2018-11-11T15:47:43.108Z,2.93
2018-11-11T15:50:12.784Z,7.43
2018-11-11T15:52:41.746Z,2.00
2018-11-11T15:55:10.680Z,2.20
2018-11-11T15:57:38.943Z,3.53
2018-11-11T16:00:08.769Z,1.70
2018-11-11T16:02:36.927Z,2.23
2018-11-11T16:05:05.321Z,5.43
2018-11-11T16:07:33.231Z,2.53
2018-11-11T16:10:01.397Z,2.27
2018-11-11T16:12:29.588Z,2.20
2018-11-11T16:14:57.479Z,2.13
2018-11-11T16:17:25.382Z,2.20
2018-11-11T16:19:53.436Z,4.10
2018-11-11T16:22:21.456Z,3.60
2018-11-11T16:24:49.627Z,2.93
2018-11-11T16:27:18.404Z,4.17
2018-11-11T16:29:49.728Z,7.90
2018-11-11T16:32:18.701Z,6.53
2018-11-11T16:34:48.411Z,4.63
2018-11-11T16:37:17.598Z,4.07
2018-11-11T16:39:45.937Z,4.47
2018-11-11T16:42:13.767Z,4.77
2018-11-11T16:44:42.078Z,4.73
2018-11-11T16:47:10.756Z,7.17
2018-11-11T16:49:41.721Z,16.70
2018-11-11T16:52:09.717Z,4.10
2018-11-11T16:54:38.808Z,5.80
2018-11-11T16:57:07.291Z,5.67
2018-11-11T16:59:35.264Z,6.23
2018-11-11T17:02:03.426Z,7.67
2018-11-11T17:04:31.654Z,8.30
2018-11-11T17:06:59.706Z,4.97
2018-11-11T17:09:27.614Z,9.33
2018-11-11T17:11:55.522Z,8.50
2018-11-11T17:14:23.758Z,14.97
2018-11-11T17:16:52.899Z,12.33
2018-11-11T17:19:20.883Z,13.87
2018-11-11T17:21:49.291Z,11.37
2018-11-11T17:24:17.282Z,5.00
2018-11-11T17:26:45.478Z,7.50
2018-11-11T17:29:13.392Z,7.70
2018-11-11T17:31:41.563Z,4.60
2018-11-11T17:34:09.502Z,5.07
2018-11-11T17:36:37.429Z,5.23
2018-11-11T17:39:08.849Z,4.80
2018-11-11T17:41:37.404Z,9.23
2018-11-11T17:44:05.310Z,6.13
2018-11-11T17:46:33.458Z,6.97
2018-11-11T17:49:03.120Z,6.73
2018-11-11T17:51:31.270Z,9.90
2018-11-11T17:54:00.195Z,8.10
2018-11-11T17:56:29.414Z,8.20
2018-11-11T17:58:57.561Z,5.87
2018-11-11T18:01:25.714Z,7.33
2018-11-11T18:03:54.427Z,7.33
2018-11-11T18:06:23.763Z,6.10
2018-11-11T18:08:51.923Z,6.20
2018-11-11T18:11:20.786Z,4.70
2018-11-11T18:13:49.065Z,8.50
2018-11-11T18:16:17.558Z,6.13
2018-11-11T18:18:46.579Z,9.37
2018-11-11T18:21:15.450Z,7.07
2018-11-11T18:23:43.391Z,9.60
2018-11-11T18:26:11.434Z,8.37
2018-11-11T18:28:39.823Z,7.77
2018-11-11T18:31:08.506Z,6.27
2018-11-11T18:33:36.650Z,9.67
2018-11-11T18:36:05.683Z,9.73
2018-11-11T18:38:33.819Z,8.57
2018-11-11T18:41:02.726Z,6.93
2018-11-11T18:43:31.586Z,10.57
2018-11-11T18:45:59.999Z,6.47
2018-11-11T18:48:28.262Z,7.30
2018-11-11T18:50:56.652Z,9.67
2018-11-11T18:53:24.825Z,8.57
2018-11-11T18:55:53.094Z,5.57
2018-11-11T18:58:21.342Z,6.80
2018-11-11T19:00:50.033Z,7.23
2018-11-11T19:03:17.965Z,6.17
2018-11-11T19:05:46.279Z,5.93
2018-11-11T19:08:14.420Z,7.77
2018-11-11T19:10:43.415Z,7.80
2018-11-11T19:13:11.660Z,6.47
2018-11-11T19:15:40.189Z,8.50
2018-11-11T19:18:09.211Z,8.13
2018-11-11T19:20:37.228Z,12.43
2018-11-11T19:23:05.861Z,9.67
2018-11-11T19:25:34.407Z,10.67
2018-11-11T19:28:03.801Z,8.87
2018-11-11T19:30:32.831Z,16.57
2018-11-11T19:33:00.842Z,10.03
2018-11-11T19:35:28.973Z,15.90
2018-11-11T19:37:58.470Z,12.10
2018-11-11T19:40:27.754Z,10.67
2018-11-11T19:42:57.066Z,10.23
2018-11-11T19:45:26.176Z,15.27
2018-11-11T19:47:54.946Z,12.27
2018-11-11T19:50:24.986Z,12.43
2018-11-11T19:52:54.573Z,15.77
2018-11-11T19:55:23.046Z,19.23
2018-11-11T19:57:51.183Z,14.07
2018-11-11T20:00:22.764Z,13.40
2018-11-11T20:02:51.957Z,12.23
2018-11-11T20:05:20.377Z,11.60
2018-11-11T20:07:49.621Z,11.90
2018-11-11T20:10:18.648Z,9.17
2018-11-11T20:12:46.775Z,9.97
2018-11-11T20:15:16.223Z,12.47
2018-11-11T20:17:44.645Z,10.13
2018-11-11T20:20:15.441Z,12.80
2018-11-11T20:22:43.622Z,11.97
2018-11-11T20:25:13.032Z,9.63
2018-11-11T20:27:42.401Z,12.00
2018-11-11T20:30:12.242Z,9.93
2018-11-11T20:32:41.499Z,11.47
2018-11-11T20:35:11.179Z,10.20
2018-11-11T20:37:39.978Z,14.20
2018-11-11T20:40:11.022Z,13.87
2018-11-11T20:42:39.725Z,13.80
2018-11-11T20:45:08.838Z,11.87
2018-11-11T20:47:38.210Z,12.37
2018-11-11T20:50:09.042Z,10.00
2018-11-11T20:52:37.370Z,11.77
2018-11-11T20:55:06.678Z,12.20
2018-11-11T20:57:34.970Z,14.20
2018-11-11T21:00:03.107Z,14.70
2018-11-11T21:02:31.319Z,16.17
2018-11-11T21:04:59.464Z,14.57
2018-11-11T21:07:27.661Z,16.17
2018-11-11T21:09:55.789Z,12.87
2018-11-11T21:12:23.710Z,13.07
2018-11-11T21:14:52.689Z,14.97
2018-11-11T21:17:20.930Z,15.53
2018-11-11T21:19:48.830Z,15.37
2018-11-11T21:22:16.758Z,15.87
2018-11-11T21:24:45.069Z,13.90
2018-11-11T21:27:13.222Z,16.00
2018-11-11T21:29:41.394Z,13.87
2018-11-11T21:32:10.739Z,14.10
2018-11-11T21:34:38.890Z,19.10
2018-11-11T21:37:08.645Z,19.53
2018-11-11T21:39:36.916Z,19.37
2018-11-11T21:42:05.341Z,15.17
2018-11-11T21:44:34.795Z,15.03
2018-11-11T21:47:03.213Z,14.67
2018-11-11T21:49:31.139Z,13.70
2018-11-11T21:51:59.066Z,16.57
2018-11-11T21:54:27.193Z,15.17
2018-11-11T21:56:55.467Z,15.40
2018-11-11T21:59:23.775Z,14.37
2018-11-11T22:01:51.957Z,13.43
2018-11-11T22:04:20.290Z,16.10
2018-11-11T22:06:49.331Z,17.60
2018-11-11T22:09:18.553Z,19.63
2018-11-11T22:11:48.100Z,15.57
2018-11-11T22:14:16.721Z,12.50
2018-11-11T22:16:46.789Z,11.93
2018-11-11T22:19:15.518Z,14.50
2018-11-11T22:21:43.490Z,13.43
2018-11-11T22:24:14.119Z,13.50
2018-11-11T22:26:43.551Z,15.30
2018-11-11T22:29:13.963Z,14.40
2018-11-11T22:31:42.464Z,12.93
2018-11-11T22:34:10.635Z,13.33
2018-11-11T22:36:38.840Z,12.47
2018-11-11T22:39:11.363Z,12.53
2018-11-11T22:41:39.618Z,19.90
2018-11-11T22:44:09.657Z,15.70
2018-11-11T22:46:39.272Z,20.10
2018-11-11T22:49:08.621Z,19.50
2018-11-11T22:51:36.753Z,14.03
2018-11-11T22:54:06.718Z,17.97
2018-11-11T22:56:36.444Z,18.13
2018-11-11T22:59:04.814Z,17.63
2018-11-11T23:01:32.943Z,16.20
2018-11-11T23:04:00.866Z,15.80
2018-11-11T23:06:29.014Z,17.83
2018-11-11T23:08:58.485Z,16.03
2018-11-11T23:11:27.486Z,17.10
2018-11-11T23:13:56.332Z,18.43
2018-11-11T23:16:26.151Z,17.87
2018-11-11T23:18:56.078Z,16.27
2018-11-11T23:21:24.851Z,16.23
2018-11-11T23:23:53.006Z,18.63
2018-11-11T23:26:21.150Z,16.40
2018-11-11T23:28:49.310Z,18.43
2018-11-11T23:31:17.514Z,18.87
2018-11-11T23:33:45.445Z,17.37
2018-11-11T23:36:13.363Z,16.80
2018-11-11T23:38:41.339Z,20.67
2018-11-11T23:41:12.290Z,23.23
2018-11-11T23:43:40.550Z,24.47
2018-11-11T23:46:10.600Z,20.87
2018-11-11T23:48:39.139Z,19.27
2018-11-11T23:51:08.559Z,24.17
2018-11-11T23:53:37.259Z,21.67
2018-11-11T23:56:07.913Z,19.83
2018-11-11T23:58:35.854Z,21.37
